• Join FlightAware (Why Join?)
  • Login
  • US Flag 
04:29AM EDT


 

Airport Tracker/Info


-or-


 

Live Flight TrackerFlight Track Log ✈ FLG4135 ✈ 05-May-2013 ✈ KAZO - KDTW

Flight Track Log - Related Links

Times and Time Zones

All times are in EDT time to prevent confusion due to time zone crossing. See the FLG4135 flight status page for this flight to view local times or setup timezone preferences in your user account.

Time Position Orientation Groundspeed Altitude Reporting Facility
EDT Latitude Longitude Course Direction KTS MPH feet Rate Location/Type
12:35PM 42.1728 -85.4764 122° Southeast 201 231 4,900  Level Chicago Center
12:36PM 42.1589 -85.3872 102° East 239 275 7,600 2,760 Climbing Chicago Center
12:37PM 42.1607 -85.2219 106° East  Level FlightAware Approximate
12:37PM 42.1528 -85.3508 103° East 220 253 8,800  Level Cleveland Center
12:38PM 42.1429 -85.1389 106° East  Level FlightAware Approximate
12:38PM 42.1403 -85.2492 99° East 244 281 11,000  Level Cleveland Center
12:39PM 42.1251 -85.0559 106° East  Level FlightAware Approximate
12:39PM 42.1200 -85.1300 103° East 287 330 11,000  Level Cleveland Center
12:40PM 42.1000 -84.9997 102° East 328 377 11,000  Level Cleveland Center
12:41PM 42.0631 -84.8797 112° Southeast 348 400 11,000  Level Cleveland Center
12:42PM 41.9689 -84.8286 158° South 326 375 11,000  Level Cleveland Center
12:43PM 41.8747 -84.7833 160° South 336 387 11,000  Level Cleveland Center
12:44PM 41.7825 -84.7356 159° South 349 402 11,000  Level Cleveland Center
12:45PM 41.6925 -84.6908 160° South 354 407 11,000  Level Cleveland Center
12:46PM 41.6044 -84.6436 158° South 349 402 11,000  Level Cleveland Center
12:47PM 41.5589 -84.5711 130° Southeast 288 331 11,000  Level Cleveland Center
12:48PM 41.6217 -84.5111 36° Northeast 157 181 11,000  Level Cleveland Center
12:49PM 41.7108 -84.4611 23° Northeast 228 262 11,000 60 Level Cleveland Center
12:49PM 41.7289 -84.4175 61° Northeast 371 427 11,100  Climbing Cleveland Center
12:50PM 41.7525 -84.3411 67° East 291 335 11,000 -120 Descending Cleveland Center
12:50PM 41.7603 -84.2942 77° East 364 419 11,000  Level Cleveland Center
12:51PM 41.7769 -84.2283 71° East 320 368 11,000  Level Cleveland Center
12:51PM 41.7958 -84.1542 71° East 367 422 11,000  Level Cleveland Center
12:52PM 41.8103 -84.0964 71° East 346 398 11,000  Level Cleveland Center
12:52PM 41.8308 -84.0361 65° Northeast 302 348 11,000  Level Cleveland Center
12:53PM 41.8486 -83.9981 58° Northeast 331 381 11,000  Level Cleveland Center
12:53PM 41.8747 -83.9603 47° Northeast 249 287 11,000  Level Cleveland Center
12:54PM 41.8903 -83.9278 57° Northeast 279 321 11,000  Level Cleveland Center
12:54PM 41.9164 -83.8872 49° Northeast 248 285 11,000  Level Cleveland Center
12:55PM 41.9361 -83.8575 48° Northeast 257 296 11,000  Level Cleveland Center
12:55PM 41.9728 -83.8175 39° Northeast 253 291 11,000  Level Cleveland Center
12:56PM 41.9900 -83.7989 39° Northeast 241 277 11,000 60 Level Cleveland Center
12:56PM 42.0286 -83.7589 38° Northeast 250 288 11,100  Climbing Cleveland Center
12:57PM 42.0436 -83.7372 47° Northeast 241 277 11,000 -120 Descending Cleveland Center
12:57PM 42.0803 -83.7000 37° Northeast 255 293 11,000  Level Cleveland Center
12:58PM 42.0997 -83.6756 43° Northeast 247 284 11,000  Level Cleveland Center
12:58PM 42.1381 -83.6383 36° Northeast 259 298 11,000  Level Cleveland Center
12:59PM 42.1533 -83.6139 50° Northeast 247 284 11,000 60 Level Cleveland Center
12:59PM 42.1919 -83.5764 36° Northeast 258 297 11,100  Climbing Cleveland Center
01:00PM 42.2497 -83.5117 40° Northeast 255 293 11,000 -720 Descending Cleveland Center
01:01PM 42.3117 -83.4642 30° Northeast 255 293 9,700 -1,620 Descending Cleveland Center
01:02PM 42.3789 -83.4392 15° North 251 289 7,800 -1,980 Descending Cleveland Center
01:03PM 42.4281 -83.3878 38° Northeast 203 234 5,700 -1,980 Descending Cleveland Center
01:04PM 42.4047 -83.3192 115° Southeast 199 229 3,800 -1,380 Descending Cleveland Center
01:05PM 42.3575 -83.2864 153° Southeast 176 203 3,000 -600 Descending Cleveland Center
01:06PM 42.3133 -83.3042 197° South 182 209 2,700 -600 Descending Cleveland Center
01:07PM 42.2708 -83.3358 209° Southwest 145 167 1,800 -900 Descending Cleveland Center
01:08PM 42.2328 -83.3594 205° Southwest 150 173 1,000 -840 Descending Cleveland Center